createdAt,value
2018-11-04T00:00:18.082Z,18.03
2018-11-04T00:02:47.141Z,17.93
2018-11-04T00:05:16.490Z,19.03
2018-11-04T00:07:45.631Z,18.70
2018-11-04T00:10:15.829Z,19.53
2018-11-04T00:12:44.177Z,18.30
2018-11-04T00:15:12.512Z,22.80
2018-11-04T00:17:41.206Z,24.97
2018-11-04T00:20:11.746Z,21.17
2018-11-04T00:22:40.081Z,35.47
2018-11-04T00:25:10.310Z,37.57
2018-11-04T00:27:38.903Z,30.07
2018-11-04T00:30:09.246Z,20.77
2018-11-04T00:32:37.554Z,23.57
2018-11-04T00:35:06.512Z,18.47
2018-11-04T00:37:34.825Z,20.83
2018-11-04T00:40:03.192Z,18.87
2018-11-04T00:42:31.519Z,20.00
2018-11-04T00:44:59.857Z,19.17
2018-11-04T00:47:28.404Z,18.63
2018-11-04T00:49:56.771Z,18.67
2018-11-04T00:52:25.086Z,17.90
2018-11-04T00:54:53.409Z,18.57
2018-11-04T00:57:21.728Z,19.60
2018-11-04T00:59:50.693Z,18.13
2018-11-04T01:02:19.002Z,18.57
2018-11-04T01:04:47.493Z,18.60
2018-11-04T01:07:15.850Z,17.90
2018-11-04T01:09:44.176Z,18.00
2018-11-04T01:12:12.490Z,18.97
2018-11-04T01:14:40.819Z,18.83
2018-11-04T01:17:09.140Z,18.07
2018-11-04T01:19:37.464Z,18.03
2018-11-04T01:22:05.774Z,17.97
2018-11-04T01:24:34.224Z,17.87
2018-11-04T01:27:02.478Z,17.67
2018-11-04T01:29:30.930Z,18.23
2018-11-04T01:31:59.265Z,18.37
2018-11-04T01:34:27.593Z,17.77
2018-11-04T01:36:55.892Z,17.63
2018-11-04T01:39:24.208Z,18.10
2018-11-04T01:41:52.522Z,18.17
2018-11-04T01:44:20.857Z,17.17
2018-11-04T01:46:49.958Z,18.70
2018-11-04T01:49:18.706Z,19.10
2018-11-04T01:51:47.136Z,19.07
2018-11-04T01:54:16.418Z,18.97
2018-11-04T01:56:44.779Z,20.13
2018-11-04T01:59:13.077Z,19.03
2018-11-04T02:01:41.421Z,20.30
2018-11-04T02:04:09.733Z,18.43
2018-11-04T02:06:38.241Z,20.87
2018-11-04T02:09:08.957Z,19.87
2018-11-04T02:11:37.461Z,20.07
2018-11-04T02:14:05.921Z,19.67
2018-11-04T02:16:36.773Z,20.07
2018-11-04T02:19:05.449Z,19.87
2018-11-04T02:21:33.886Z,20.60
2018-11-04T02:24:02.194Z,21.40
2018-11-04T02:26:30.897Z,21.93
2018-11-04T02:28:59.225Z,21.70
2018-11-04T02:31:27.550Z,21.07
2018-11-04T02:33:55.857Z,20.47
2018-11-04T02:36:24.185Z,21.90
2018-11-04T02:38:52.677Z,20.83
2018-11-04T02:41:21.142Z,22.00
2018-11-04T02:43:49.466Z,21.47
2018-11-04T02:46:17.789Z,20.97
2018-11-04T02:48:46.089Z,21.80
2018-11-04T02:51:14.421Z,20.20
2018-11-04T02:53:42.718Z,21.37
2018-11-04T02:56:11.043Z,21.53
2018-11-04T02:58:39.351Z,22.07
2018-11-04T03:01:07.675Z,20.57
2018-11-04T03:03:37.241Z,19.33
2018-11-04T03:06:07.230Z,21.50
2018-11-04T03:08:36.649Z,21.10
2018-11-04T03:11:05.050Z,21.73
2018-11-04T03:13:33.374Z,21.80
2018-11-04T03:16:01.753Z,20.97
2018-11-04T03:18:30.077Z,20.97
2018-11-04T03:20:58.405Z,21.50
2018-11-04T03:23:26.710Z,20.00
2018-11-04T03:25:55.028Z,20.80
2018-11-04T03:28:23.379Z,21.43
2018-11-04T03:30:51.777Z,20.50
2018-11-04T03:33:20.843Z,21.07
2018-11-04T03:35:49.242Z,20.80
2018-11-04T03:38:18.668Z,20.50
2018-11-04T03:40:47.034Z,20.77
2018-11-04T03:43:15.348Z,21.07
2018-11-04T03:45:43.670Z,20.37
2018-11-04T03:48:11.970Z,19.73
2018-11-04T03:50:40.297Z,19.80
2018-11-04T03:53:08.737Z,19.93
2018-11-04T03:55:37.942Z,20.93
2018-11-04T03:58:06.281Z,20.00
2018-11-04T04:00:34.685Z,20.33
2018-11-04T04:03:03.029Z,20.23
2018-11-04T04:05:31.338Z,20.70
2018-11-04T04:07:59.665Z,20.70
2018-11-04T04:10:33.705Z,20.73
2018-11-04T04:13:02.047Z,21.33
2018-11-04T04:15:30.354Z,20.90
2018-11-04T04:17:58.679Z,22.60
2018-11-04T04:20:26.994Z,20.47
2018-11-04T04:22:55.323Z,21.37
2018-11-04T04:25:23.626Z,22.03
2018-11-04T04:27:51.950Z,21.73
2018-11-04T04:30:20.251Z,20.73
2018-11-04T04:32:48.581Z,21.97
2018-11-04T04:35:16.902Z,21.00
2018-11-04T04:37:45.229Z,21.03
2018-11-04T04:40:13.545Z,21.17
2018-11-04T04:42:41.864Z,21.50
2018-11-04T04:45:10.173Z,20.73
2018-11-04T04:47:38.498Z,23.07
2018-11-04T04:50:07.057Z,22.33
2018-11-04T04:52:35.383Z,23.10
2018-11-04T04:55:03.710Z,20.97
2018-11-04T04:57:32.038Z,23.10
2018-11-04T05:00:00.475Z,22.77
2018-11-04T05:02:28.797Z,23.27
2018-11-04T05:04:57.134Z,21.33
2018-11-04T05:07:25.465Z,22.50
2018-11-04T05:09:53.766Z,22.17
2018-11-04T05:12:22.105Z,22.03
2018-11-04T05:14:50.421Z,22.27
2018-11-04T05:17:18.757Z,21.80
2018-11-04T05:19:47.066Z,21.93
2018-11-04T05:22:15.401Z,21.87
2018-11-04T05:24:43.705Z,22.53
2018-11-04T05:27:12.030Z,22.27
2018-11-04T05:29:40.342Z,22.93
2018-11-04T05:32:08.660Z,22.23
2018-11-04T05:34:36.966Z,23.43
2018-11-04T05:37:05.591Z,22.37
2018-11-04T05:39:33.898Z,21.53
2018-11-04T05:42:02.247Z,23.07
2018-11-04T05:44:30.550Z,22.67
2018-11-04T05:46:58.879Z,22.00
2018-11-04T05:49:27.188Z,22.63
2018-11-04T05:51:55.509Z,21.17
2018-11-04T05:54:23.817Z,23.03
2018-11-04T05:56:52.137Z,22.20
2018-11-04T05:59:20.438Z,22.37
2018-11-04T06:01:48.762Z,24.00
2018-11-04T06:04:17.083Z,23.37
2018-11-04T06:06:45.393Z,23.73
2018-11-04T06:09:13.720Z,23.30
2018-11-04T06:11:42.068Z,23.07
2018-11-04T06:14:10.389Z,24.07
2018-11-04T06:16:38.705Z,23.07
2018-11-04T06:19:07.034Z,22.20
2018-11-04T06:21:35.341Z,23.73
2018-11-04T06:24:03.681Z,22.70
2018-11-04T06:26:32.005Z,23.30
2018-11-04T06:29:00.338Z,23.17
2018-11-04T06:31:28.641Z,23.00
2018-11-04T06:33:56.985Z,22.97
2018-11-04T06:36:25.293Z,21.77
2018-11-04T06:38:53.621Z,22.50
2018-11-04T06:41:21.930Z,21.90
2018-11-04T06:43:50.278Z,23.50
2018-11-04T06:46:18.618Z,22.60
2018-11-04T06:48:46.937Z,23.17
2018-11-04T06:51:15.250Z,22.17
2018-11-04T06:53:43.574Z,22.63
2018-11-04T06:56:11.885Z,21.97
2018-11-04T06:58:40.209Z,22.40
2018-11-04T07:01:08.521Z,23.50
2018-11-04T07:03:36.943Z,22.17
2018-11-04T07:06:05.279Z,23.03
2018-11-04T07:08:33.621Z,23.67
2018-11-04T07:11:01.937Z,23.00
2018-11-04T07:13:30.270Z,22.43
2018-11-04T07:15:58.582Z,23.30
2018-11-04T07:18:26.907Z,22.00
2018-11-04T07:20:55.214Z,23.27
2018-11-04T07:23:23.543Z,24.77
2018-11-04T07:25:51.889Z,23.40
2018-11-04T07:28:20.230Z,24.20
2018-11-04T07:30:48.535Z,23.57
2018-11-04T07:33:16.870Z,24.23
2018-11-04T07:35:45.176Z,25.57
2018-11-04T07:38:15.191Z,22.50
2018-11-04T07:40:43.561Z,23.00
2018-11-04T07:43:11.877Z,23.57
2018-11-04T07:45:40.251Z,23.13
2018-11-04T07:48:08.629Z,22.83
2018-11-04T07:50:36.974Z,22.33
2018-11-04T07:53:05.459Z,24.20
2018-11-04T07:55:33.758Z,23.67
2018-11-04T07:58:02.090Z,23.87
2018-11-04T08:00:30.507Z,23.73
2018-11-04T08:02:58.824Z,24.53
2018-11-04T08:05:27.157Z,25.90
2018-11-04T08:07:55.465Z,26.17
2018-11-04T08:10:23.803Z,24.47
2018-11-04T08:12:52.116Z,24.07
2018-11-04T08:15:20.452Z,25.77
2018-11-04T08:17:48.761Z,26.17
2018-11-04T08:20:17.979Z,25.57
2018-11-04T08:22:47.737Z,25.60
2018-11-04T08:25:16.067Z,26.73
2018-11-04T08:27:44.477Z,26.10
2018-11-04T08:30:12.745Z,26.23
2018-11-04T08:32:41.062Z,25.67
2018-11-04T08:35:09.393Z,25.27
2018-11-04T08:37:37.697Z,25.47
2018-11-04T08:40:06.789Z,25.00
2018-11-04T08:42:35.002Z,25.90
2018-11-04T08:45:03.429Z,26.27
2018-11-04T08:47:31.747Z,26.83
2018-11-04T08:50:00.078Z,27.30
2018-11-04T08:52:28.440Z,26.53
2018-11-04T08:54:56.922Z,26.00
2018-11-04T08:57:25.236Z,26.33
2018-11-04T08:59:53.616Z,27.60
2018-11-04T09:02:21.901Z,27.07
2018-11-04T09:04:50.220Z,26.03
2018-11-04T09:07:18.530Z,26.57
2018-11-04T09:09:46.854Z,27.70
2018-11-04T09:12:15.200Z,27.03
2018-11-04T09:14:43.555Z,27.23
2018-11-04T09:17:11.863Z,26.23
2018-11-04T09:19:40.197Z,25.90
2018-11-04T09:22:08.584Z,25.10
2018-11-04T09:24:36.862Z,27.13
2018-11-04T09:27:05.189Z,25.77
2018-11-04T09:29:33.509Z,26.00
2018-11-04T09:32:01.835Z,26.70
2018-11-04T09:34:30.216Z,27.20
2018-11-04T09:36:58.525Z,26.73
2018-11-04T09:39:26.865Z,26.90
2018-11-04T09:41:55.174Z,26.33
2018-11-04T09:44:23.526Z,26.27
2018-11-04T09:46:51.843Z,28.57
2018-11-04T09:49:20.225Z,28.40
2018-11-04T09:51:48.534Z,29.30
2018-11-04T09:54:16.837Z,29.90
2018-11-04T09:56:45.204Z,29.13
2018-11-04T09:59:13.524Z,29.50
2018-11-04T10:01:41.856Z,30.00
2018-11-04T10:04:10.167Z,28.23
2018-11-04T10:06:38.489Z,28.17
2018-11-04T10:09:08.457Z,29.13
2018-11-04T10:11:36.814Z,28.60
2018-11-04T10:14:05.146Z,28.57
2018-11-04T10:16:33.485Z,27.73
2018-11-04T10:19:01.918Z,29.53
2018-11-04T10:21:30.149Z,27.07
2018-11-04T10:23:58.458Z,27.07
2018-11-04T10:26:26.790Z,27.80
2018-11-04T10:28:55.101Z,27.60
2018-11-04T10:31:23.425Z,26.73
2018-11-04T10:33:51.735Z,27.20
2018-11-04T10:36:20.094Z,27.80
2018-11-04T10:38:48.382Z,28.07
2018-11-04T10:41:16.717Z,28.43
2018-11-04T10:43:45.056Z,27.77
2018-11-04T10:46:13.399Z,27.83
2018-11-04T10:48:41.715Z,27.97
2018-11-04T10:51:10.051Z,28.23
2018-11-04T10:53:38.353Z,27.83
2018-11-04T10:56:06.698Z,27.40
2018-11-04T10:58:35.019Z,28.17
2018-11-04T11:01:06.446Z,27.53
2018-11-04T11:03:34.787Z,28.03
2018-11-04T11:06:03.136Z,28.10
2018-11-04T11:08:31.436Z,27.20
2018-11-04T11:11:00.025Z,28.53
2018-11-04T11:13:28.651Z,28.00
2018-11-04T11:15:57.006Z,24.63
2018-11-04T11:18:25.329Z,19.30
2018-11-04T11:20:53.707Z,27.03
2018-11-04T11:23:22.013Z,27.17
2018-11-04T11:25:50.347Z,26.40
2018-11-04T11:28:18.672Z,28.23
2018-11-04T11:30:47.002Z,27.97
2018-11-04T11:33:15.309Z,26.77
2018-11-04T11:35:43.640Z,24.97
2018-11-04T11:38:11.947Z,26.70
2018-11-04T11:40:40.286Z,28.20
2018-11-04T11:43:08.602Z,26.43
2018-11-04T11:45:36.922Z,26.97
2018-11-04T11:48:05.358Z,28.17
2018-11-04T11:50:33.725Z,26.27
2018-11-04T11:53:02.070Z,25.97
2018-11-04T11:55:30.445Z,26.73
2018-11-04T11:57:58.770Z,27.23
2018-11-04T12:00:27.074Z,26.40
2018-11-04T12:02:55.402Z,26.00
2018-11-04T12:05:23.725Z,26.47
2018-11-04T12:07:52.082Z,26.83
2018-11-04T12:10:20.403Z,26.23
2018-11-04T12:12:48.731Z,26.87
2018-11-04T12:15:17.058Z,27.80
2018-11-04T12:17:45.432Z,27.60
2018-11-04T12:20:14.031Z,26.63
2018-11-04T12:22:42.381Z,26.87
2018-11-04T12:25:11.926Z,28.07
2018-11-04T12:27:40.312Z,27.27
2018-11-04T12:30:11.541Z,27.60
2018-11-04T12:32:40.037Z,27.70
2018-11-04T12:35:09.279Z,28.30
2018-11-04T12:37:37.569Z,29.30
2018-11-04T12:40:07.661Z,26.87
2018-11-04T12:42:36.219Z,26.20
2018-11-04T12:45:05.193Z,27.40
2018-11-04T12:47:33.523Z,25.00
2018-11-04T12:50:01.835Z,26.47
2018-11-04T12:52:30.185Z,24.97
2018-11-04T12:54:58.496Z,25.73
2018-11-04T12:57:26.833Z,24.83
2018-11-04T12:59:55.165Z,24.83
2018-11-04T13:02:23.497Z,24.90
2018-11-04T13:04:51.816Z,23.20
2018-11-04T13:07:20.145Z,24.73
2018-11-04T13:09:48.674Z,24.17
2018-11-04T13:12:16.997Z,24.90
2018-11-04T13:14:45.309Z,24.53
2018-11-04T13:17:13.653Z,22.37
2018-11-04T13:19:41.954Z,24.53
2018-11-04T13:22:10.286Z,23.47
2018-11-04T13:24:38.605Z,23.87
2018-11-04T13:27:07.030Z,24.23
2018-11-04T13:29:35.289Z,25.53
2018-11-04T13:32:03.636Z,22.17
2018-11-04T13:34:31.954Z,22.43
2018-11-04T13:37:00.298Z,22.73
2018-11-04T13:39:28.625Z,22.57
2018-11-04T13:41:56.931Z,21.80
2018-11-04T13:44:25.257Z,22.43
2018-11-04T13:46:53.569Z,22.20
2018-11-04T13:49:22.130Z,20.83
2018-11-04T13:51:50.426Z,22.73
2018-11-04T13:54:18.787Z,20.30
2018-11-04T13:56:47.099Z,19.50
2018-11-04T13:59:15.422Z,21.13
2018-11-04T14:01:43.742Z,21.03
2018-11-04T14:04:12.079Z,20.70
2018-11-04T14:06:40.382Z,22.77
2018-11-04T14:09:09.254Z,21.33
2018-11-04T14:11:37.610Z,21.03
2018-11-04T14:14:06.132Z,21.47
2018-11-04T14:16:34.486Z,20.93
2018-11-04T14:19:02.823Z,22.10
2018-11-04T14:21:31.150Z,21.17
2018-11-04T14:23:59.723Z,20.47
2018-11-04T14:26:28.029Z,21.93
2018-11-04T14:28:56.386Z,21.73
2018-11-04T14:31:24.706Z,22.43
2018-11-04T14:33:53.036Z,23.27
2018-11-04T14:36:21.341Z,21.77
2018-11-04T14:38:49.807Z,25.17
2018-11-04T14:41:18.119Z,25.97
2018-11-04T14:43:46.449Z,26.63
2018-11-04T14:46:14.778Z,27.70
2018-11-04T14:48:43.121Z,28.37
2018-11-04T14:51:11.426Z,28.03
2018-11-04T14:53:39.829Z,35.57
2018-11-04T14:56:08.149Z,29.93
2018-11-04T14:58:36.503Z,28.63
2018-11-04T15:01:05.023Z,30.57
2018-11-04T15:03:33.218Z,32.20
2018-11-04T15:06:01.534Z,31.90
2018-11-04T15:08:29.925Z,30.87
2018-11-04T15:10:58.252Z,31.40
2018-11-04T15:13:26.596Z,33.03
2018-11-04T15:15:54.964Z,32.63
2018-11-04T15:18:23.277Z,33.57
2018-11-04T15:20:51.590Z,35.40
2018-11-04T15:23:19.925Z,34.57
2018-11-04T15:25:48.230Z,34.83
2018-11-04T15:28:19.152Z,33.87
2018-11-04T15:30:47.462Z,31.97
2018-11-04T15:33:16.137Z,33.93
2018-11-04T15:35:44.442Z,32.67
2018-11-04T15:38:12.828Z,33.90
2018-11-04T15:40:41.213Z,34.17
2018-11-04T15:43:09.451Z,33.53
2018-11-04T15:45:37.837Z,33.03
2018-11-04T15:48:06.149Z,36.27
2018-11-04T15:50:34.493Z,33.63
2018-11-04T15:53:02.810Z,34.30
2018-11-04T15:55:31.161Z,33.57
2018-11-04T15:57:59.482Z,43.40
2018-11-04T16:00:27.830Z,37.83
2018-11-04T16:02:56.155Z,35.83
2018-11-04T16:05:25.097Z,35.33
2018-11-04T16:07:53.368Z,43.73
2018-11-04T16:10:21.714Z,40.13
2018-11-04T16:12:50.021Z,36.03
2018-11-04T16:15:18.383Z,40.23
2018-11-04T16:17:46.685Z,37.93
2018-11-04T16:20:15.866Z,31.10
2018-11-04T16:22:44.727Z,33.97
2018-11-04T16:25:13.536Z,33.33
2018-11-04T16:27:42.313Z,84.57
2018-11-04T16:30:11.937Z,32.80
2018-11-04T16:32:40.254Z,33.70
2018-11-04T16:35:10.321Z,34.00
2018-11-04T16:37:38.947Z,35.57
2018-11-04T16:40:07.798Z,35.93
2018-11-04T16:42:36.122Z,33.13
2018-11-04T16:45:05.293Z,33.27
2018-11-04T16:47:33.611Z,30.70
2018-11-04T16:50:02.025Z,34.97
2018-11-04T16:52:30.382Z,34.13
2018-11-04T16:54:58.734Z,31.70
2018-11-04T16:57:27.085Z,35.27
2018-11-04T16:59:55.414Z,34.67
2018-11-04T17:02:23.725Z,32.80
2018-11-04T17:04:52.081Z,33.43
2018-11-04T17:07:20.434Z,36.30
2018-11-04T17:09:48.770Z,35.07
2018-11-04T17:12:17.077Z,35.43
2018-11-04T17:14:45.441Z,34.70
2018-11-04T17:17:13.762Z,33.80
2018-11-04T17:19:42.100Z,33.83
2018-11-04T17:22:10.422Z,32.30
2018-11-04T17:24:38.781Z,34.73
2018-11-04T17:27:07.120Z,33.43
2018-11-04T17:29:35.477Z,32.93
2018-11-04T17:32:03.903Z,35.30
2018-11-04T17:34:32.233Z,40.13
2018-11-04T17:37:00.682Z,32.10
2018-11-04T17:39:29.678Z,31.93
2018-11-04T17:41:58.032Z,43.77
2018-11-04T17:44:26.391Z,53.37
2018-11-04T17:46:54.762Z,59.33
2018-11-04T17:49:23.076Z,54.00
2018-11-04T17:51:51.421Z,36.97
2018-11-04T17:54:19.725Z,43.83
2018-11-04T17:56:48.097Z,30.97
2018-11-04T17:59:16.400Z,32.13
2018-11-04T18:01:44.737Z,36.30
2018-11-04T18:04:13.049Z,43.87
2018-11-04T18:06:41.737Z,35.47
2018-11-04T18:09:10.513Z,34.37
2018-11-04T18:11:38.885Z,31.40
2018-11-04T18:14:07.399Z,31.77
2018-11-04T18:16:35.769Z,30.27
2018-11-04T18:19:04.152Z,28.67
2018-11-04T18:21:32.469Z,42.87
2018-11-04T18:24:00.772Z,32.37
2018-11-04T18:26:29.150Z,27.17
2018-11-04T18:28:57.476Z,26.60
2018-11-04T18:31:25.835Z,25.90
2018-11-04T18:33:54.137Z,24.27
2018-11-04T18:36:22.496Z,25.50
2018-11-04T18:38:50.796Z,27.47
2018-11-04T18:41:19.183Z,27.50
2018-11-04T18:43:47.617Z,25.80
2018-11-04T18:46:15.868Z,23.97
2018-11-04T18:48:44.185Z,24.20
2018-11-04T18:51:12.670Z,26.33
2018-11-04T18:53:40.979Z,25.07
2018-11-04T18:56:09.305Z,27.50
2018-11-04T18:58:37.608Z,26.23
2018-11-04T19:01:05.949Z,28.77
2018-11-04T19:03:34.297Z,26.60
2018-11-04T19:06:02.624Z,25.83
2018-11-04T19:08:30.925Z,26.70
2018-11-04T19:10:59.328Z,26.70
2018-11-04T19:13:27.613Z,24.97
2018-11-04T19:15:55.936Z,24.70
2018-11-04T19:18:24.238Z,27.80
2018-11-04T19:20:52.560Z,28.10
2018-11-04T19:23:20.879Z,30.77
2018-11-04T19:25:49.226Z,31.97
2018-11-04T19:28:17.564Z,32.63
2018-11-04T19:30:45.922Z,28.83
2018-11-04T19:33:14.192Z,26.27
2018-11-04T19:35:42.492Z,24.63
2018-11-04T19:38:10.877Z,24.00
2018-11-04T19:40:39.181Z,27.30
2018-11-04T19:43:07.595Z,24.87
2018-11-04T19:45:35.836Z,29.17
2018-11-04T19:48:04.278Z,33.23
2018-11-04T19:50:32.507Z,23.53
2018-11-04T19:53:00.870Z,28.03
2018-11-04T19:55:29.179Z,23.30
2018-11-04T19:57:57.513Z,25.53
2018-11-04T20:00:25.809Z,22.70
2018-11-04T20:02:54.171Z,23.87
2018-11-04T20:05:22.562Z,22.77
2018-11-04T20:07:50.877Z,23.37
2018-11-04T20:10:20.058Z,22.70
2018-11-04T20:12:53.765Z,21.90
2018-11-04T20:15:22.067Z,21.00
2018-11-04T20:17:50.713Z,22.90
2018-11-04T20:20:22.886Z,23.20
2018-11-04T20:22:51.128Z,23.43
2018-11-04T20:25:24.964Z,23.90
2018-11-04T20:27:53.364Z,23.33
2018-11-04T20:30:21.693Z,23.90
2018-11-04T20:32:55.475Z,24.80
2018-11-04T20:35:23.869Z,25.43
2018-11-04T20:37:52.209Z,25.40
2018-11-04T20:40:25.955Z,24.07
2018-11-04T20:42:54.301Z,24.53
2018-11-04T20:45:22.715Z,25.60
2018-11-04T20:47:56.216Z,26.57
2018-11-04T20:50:29.906Z,25.87
2018-11-04T20:52:58.250Z,26.70
2018-11-04T20:55:32.004Z,25.57
2018-11-04T20:58:00.369Z,27.07
2018-11-04T21:00:28.669Z,28.70
2018-11-04T21:02:57.159Z,27.17
2018-11-04T21:05:25.466Z,26.60
2018-11-04T21:07:54.004Z,25.17
2018-11-04T21:10:22.314Z,27.63
2018-11-04T21:12:50.870Z,25.13
2018-11-04T21:15:19.214Z,26.23
2018-11-04T21:17:47.540Z,26.73
2018-11-04T21:20:15.847Z,25.10
2018-11-04T21:22:44.169Z,25.27
2018-11-04T21:25:12.480Z,26.23
2018-11-04T21:27:40.844Z,25.77
2018-11-04T21:30:10.826Z,25.80
2018-11-04T21:32:39.154Z,26.67
2018-11-04T21:35:08.001Z,25.07
2018-11-04T21:37:36.367Z,25.27
2018-11-04T21:40:05.598Z,24.57
2018-11-04T21:42:34.117Z,25.40
2018-11-04T21:45:02.285Z,24.77
2018-11-04T21:47:30.614Z,25.60
2018-11-04T21:49:58.918Z,26.87
2018-11-04T21:52:27.257Z,25.63
2018-11-04T21:54:55.561Z,25.73
2018-11-04T21:57:23.874Z,25.60
2018-11-04T21:59:52.198Z,24.60
2018-11-04T22:02:20.731Z,25.33
2018-11-04T22:04:48.978Z,26.07
2018-11-04T22:07:17.193Z,25.10
2018-11-04T22:09:45.510Z,25.60
2018-11-04T22:12:13.813Z,26.20
2018-11-04T22:14:42.137Z,26.10
2018-11-04T22:17:10.436Z,25.03
2018-11-04T22:19:38.777Z,25.60
2018-11-04T22:22:07.109Z,24.73
2018-11-04T22:24:35.417Z,26.10
2018-11-04T22:27:03.752Z,25.87
2018-11-04T22:29:32.069Z,25.57
2018-11-04T22:32:00.402Z,25.03
2018-11-04T22:34:28.728Z,25.30
2018-11-04T22:36:57.040Z,25.17
2018-11-04T22:39:25.365Z,24.67
2018-11-04T22:41:53.660Z,25.63
2018-11-04T22:44:21.977Z,24.13
2018-11-04T22:46:50.285Z,24.87
2018-11-04T22:49:18.609Z,23.80
2018-11-04T22:51:46.909Z,24.53
2018-11-04T22:54:15.237Z,24.63
2018-11-04T22:56:43.556Z,24.77
2018-11-04T22:59:11.885Z,25.87
2018-11-04T23:01:40.332Z,25.20
2018-11-04T23:04:08.627Z,26.07
2018-11-04T23:06:36.884Z,24.97
2018-11-04T23:09:08.224Z,25.03
2018-11-04T23:11:36.793Z,24.90
2018-11-04T23:14:05.196Z,26.93
2018-11-04T23:16:33.481Z,24.73
2018-11-04T23:19:01.809Z,23.57
2018-11-04T23:21:30.146Z,23.40
2018-11-04T23:23:58.473Z,23.73
2018-11-04T23:26:27.387Z,25.33
2018-11-04T23:28:55.728Z,24.50
2018-11-04T23:31:24.025Z,23.77
2018-11-04T23:33:52.348Z,24.73
2018-11-04T23:36:20.650Z,25.00
2018-11-04T23:38:48.977Z,24.10
2018-11-04T23:41:17.272Z,24.20
2018-11-04T23:43:45.588Z,24.27
2018-11-04T23:46:13.897Z,24.10
2018-11-04T23:48:42.222Z,23.47
2018-11-04T23:51:10.522Z,23.10
2018-11-04T23:53:38.817Z,22.47
2018-11-04T23:56:07.136Z,22.87
2018-11-04T23:58:35.438Z,22.43
